DLH1MA EDDH-EDDS
Flight info
| Callsign | DLH1MA |
|---|---|
| Flight time | 0h 54m |
| Altitude | 35000 |
| Route | IDEKO7G IDEKO N850 NIE DCT BERXO DCT SILWE DCT OSBIT P605 TOSTU T726 LBU |
| Aircraft | A346/H-SDE2E3FGHIJ3J4J5M1RWXY/LB1D1 |
Departure
| Time | 2026-05-05 17:25 |
|---|---|
| Airport | Hamburg Helmut Schmidt Airport (EDDH) |
Arrival
| Time | 2026-05-05 18:20 |
|---|---|
| Airport | Stuttgart Airport (EDDS) |
| Time | Latitude | Longitude | Altitude | Speed | Heading |
|---|---|---|---|---|---|
| 2026-05-05 16:52 | 53.62897 | 10.00202 | 51 ft | 0 kts | 124° |
| 2026-05-05 17:16 | 53.62898 | 10.00199 | 57 ft | 2 kts | 124° |
| 2026-05-05 17:16 | 53.62913 | 10.00166 | 49 ft | 4 kts | 135° |
| 2026-05-05 17:17 | 53.62933 | 10.00141 | 49 ft | 4 kts | 156° |
| 2026-05-05 17:17 | 53.62952 | 10.00135 | 49 ft | 4 kts | 189° |
| 2026-05-05 17:17 | 53.62965 | 10.00142 | 49 ft | 0 kts | 211° |
| 2026-05-05 17:21 | 53.62961 | 10.00138 | 49 ft | 2 kts | 211° |
| 2026-05-05 17:22 | 53.62893 | 10.00067 | 52 ft | 9 kts | 218° |
| 2026-05-05 17:22 | 53.62862 | 10.00007 | 54 ft | 0 kts | 238° |
| 2026-05-05 17:23 | 53.62862 | 10.00006 | 57 ft | 0 kts | 238° |
| 2026-05-05 17:24 | 53.62840 | 9.99948 | 49 ft | 2 kts | 238° |
| 2026-05-05 17:24 | 53.62833 | 9.99929 | 49 ft | 3 kts | 238° |
| 2026-05-05 17:24 | 53.62844 | 9.99784 | 54 ft | 23 kts | 315° |
| 2026-05-05 17:24 | 53.63205 | 9.99458 | 51 ft | 95 kts | 334° |
| 2026-05-05 17:25 | 53.63984 | 9.98783 | 53 ft | 155 kts | 334° |
| 2026-05-05 17:25 | 53.64673 | 9.98160 | 155 ft | 179 kts | 336° |
| 2026-05-05 17:25 | 53.66216 | 9.96866 | 1101 ft | 189 kts | 337° |
| 2026-05-05 17:25 | 53.67396 | 9.95874 | 1856 ft | 194 kts | 336° |
| 2026-05-05 17:26 | 53.68647 | 9.94817 | 2349 ft | 207 kts | 336° |
| 2026-05-05 17:26 | 53.69950 | 9.93701 | 2955 ft | 212 kts | 334° |
| 2026-05-05 17:26 | 53.71043 | 9.92000 | 3632 ft | 220 kts | 303° |
| 2026-05-05 17:26 | 53.71434 | 9.89487 | 4295 ft | 230 kts | 270° |
| 2026-05-05 17:27 | 53.71051 | 9.86766 | 4763 ft | 246 kts | 252° |
| 2026-05-05 17:27 | 53.70465 | 9.83932 | 5268 ft | 265 kts | 251° |
| 2026-05-05 17:27 | 53.69837 | 9.80948 | 6056 ft | 271 kts | 251° |
| 2026-05-05 17:27 | 53.69220 | 9.77953 | 6967 ft | 268 kts | 251° |
| 2026-05-05 17:28 | 53.68618 | 9.74955 | 7745 ft | 271 kts | 252° |
| 2026-05-05 17:28 | 53.68020 | 9.71930 | 8707 ft | 271 kts | 251° |
| 2026-05-05 17:28 | 53.67422 | 9.68903 | 9722 ft | 273 kts | 251° |
| 2026-05-05 17:28 | 53.66824 | 9.65876 | 10543 ft | 279 kts | 251° |
| 2026-05-05 17:29 | 53.66148 | 9.62711 | 11067 ft | 296 kts | 244° |
| 2026-05-05 17:29 | 53.64888 | 9.59829 | 11491 ft | 317 kts | 224° |
| 2026-05-05 17:29 | 53.62966 | 9.57788 | 11899 ft | 339 kts | 203° |
| 2026-05-05 17:29 | 53.60583 | 9.56951 | 12349 ft | 360 kts | 188° |
| 2026-05-05 17:30 | 53.58037 | 9.56469 | 12831 ft | 377 kts | 187° |
| 2026-05-05 17:30 | 53.55378 | 9.55979 | 13589 ft | 385 kts | 187° |
| 2026-05-05 17:30 | 53.52723 | 9.55483 | 14391 ft | 388 kts | 188° |
| 2026-05-05 17:30 | 53.50022 | 9.54967 | 15201 ft | 392 kts | 188° |
| 2026-05-05 17:31 | 53.47293 | 9.54438 | 15990 ft | 396 kts | 188° |
| 2026-05-05 17:31 | 53.44539 | 9.53898 | 16769 ft | 400 kts | 188° |
| 2026-05-05 17:31 | 53.41759 | 9.53352 | 17539 ft | 404 kts | 188° |
| 2026-05-05 17:31 | 53.38947 | 9.52798 | 18293 ft | 409 kts | 188° |
| 2026-05-05 17:32 | 53.36110 | 9.52241 | 18977 ft | 412 kts | 188° |
| 2026-05-05 17:32 | 53.33257 | 9.51673 | 19691 ft | 415 kts | 188° |
| 2026-05-05 17:32 | 53.30374 | 9.51112 | 20420 ft | 417 kts | 188° |
| 2026-05-05 17:32 | 53.27520 | 9.50559 | 21113 ft | 420 kts | 188° |
| 2026-05-05 17:33 | 53.24567 | 9.49985 | 21812 ft | 423 kts | 188° |
| 2026-05-05 17:33 | 53.21667 | 9.49421 | 22485 ft | 426 kts | 188° |
| 2026-05-05 17:33 | 53.18675 | 9.48838 | 23172 ft | 429 kts | 188° |
| 2026-05-05 17:33 | 53.15703 | 9.48259 | 23769 ft | 432 kts | 188° |
| 2026-05-05 17:34 | 53.12703 | 9.47675 | 24320 ft | 435 kts | 189° |
| 2026-05-05 17:34 | 53.09723 | 9.47096 | 24879 ft | 438 kts | 189° |
| 2026-05-05 17:34 | 53.06684 | 9.46506 | 25447 ft | 440 kts | 189° |
| 2026-05-05 17:34 | 53.03629 | 9.45914 | 26003 ft | 443 kts | 189° |
| 2026-05-05 17:35 | 53.00562 | 9.45320 | 26547 ft | 445 kts | 189° |
| 2026-05-05 17:35 | 52.97483 | 9.44706 | 27079 ft | 448 kts | 190° |
| 2026-05-05 17:35 | 52.94381 | 9.44046 | 27615 ft | 450 kts | 190° |
| 2026-05-05 17:35 | 52.91260 | 9.43370 | 28137 ft | 453 kts | 190° |
| 2026-05-05 17:36 | 52.88127 | 9.42693 | 28664 ft | 456 kts | 190° |
| 2026-05-05 17:36 | 52.84983 | 9.42012 | 29323 ft | 454 kts | 190° |
| 2026-05-05 17:36 | 52.81867 | 9.41346 | 30118 ft | 450 kts | 190° |
| 2026-05-05 17:36 | 52.78775 | 9.40690 | 30863 ft | 445 kts | 190° |
| 2026-05-05 17:37 | 52.75717 | 9.40042 | 31618 ft | 440 kts | 190° |
| 2026-05-05 17:37 | 52.73711 | 9.39617 | 32141 ft | 436 kts | 191° |
| 2026-05-05 17:37 | 52.69703 | 9.38950 | 33201 ft | 430 kts | 187° |
| 2026-05-05 17:37 | 52.66720 | 9.38739 | 33908 ft | 428 kts | 185° |
| 2026-05-05 17:38 | 52.63724 | 9.38766 | 34350 ft | 430 kts | 182° |
| 2026-05-05 17:38 | 52.60757 | 9.39022 | 34568 ft | 437 kts | 179° |
| 2026-05-05 17:38 | 52.57669 | 9.39556 | 34676 ft | 441 kts | 176° |
| 2026-05-05 17:38 | 52.54655 | 9.40343 | 34874 ft | 447 kts | 173° |
| 2026-05-05 17:39 | 52.51609 | 9.41405 | 35295 ft | 448 kts | 171° |
| 2026-05-05 17:39 | 52.48575 | 9.42561 | 35734 ft | 447 kts | 171° |
| 2026-05-05 17:39 | 52.45534 | 9.43690 | 36093 ft | 448 kts | 172° |
| 2026-05-05 17:39 | 52.42490 | 9.44814 | 36407 ft | 450 kts | 171° |
| 2026-05-05 17:40 | 52.39428 | 9.45945 | 36713 ft | 452 kts | 171° |
| 2026-05-05 17:40 | 52.36355 | 9.47077 | 37027 ft | 452 kts | 171° |
| 2026-05-05 17:40 | 52.33288 | 9.48211 | 37399 ft | 452 kts | 171° |
| 2026-05-05 17:40 | 52.30222 | 9.49348 | 37682 ft | 452 kts | 171° |
| 2026-05-05 17:41 | 52.27154 | 9.50484 | 37962 ft | 453 kts | 171° |
| 2026-05-05 17:41 | 52.24074 | 9.51623 | 38258 ft | 454 kts | 171° |
| 2026-05-05 17:41 | 52.20990 | 9.52762 | 38528 ft | 454 kts | 171° |
| 2026-05-05 17:41 | 52.17905 | 9.53899 | 38734 ft | 455 kts | 171° |
| 2026-05-05 17:42 | 52.14807 | 9.55038 | 38825 ft | 459 kts | 171° |
| 2026-05-05 17:42 | 52.08514 | 9.57342 | 38824 ft | 464 kts | 171° |
| 2026-05-05 17:43 | 52.03280 | 9.59263 | 38830 ft | 464 kts | 171° |
| 2026-05-05 17:43 | 51.96983 | 9.61566 | 38815 ft | 464 kts | 171° |
| 2026-05-05 17:44 | 51.90683 | 9.63860 | 38817 ft | 464 kts | 171° |
| 2026-05-05 17:44 | 51.84385 | 9.66144 | 38809 ft | 463 kts | 170° |
| 2026-05-05 17:45 | 51.78095 | 9.68423 | 38810 ft | 463 kts | 170° |
| 2026-05-05 17:45 | 51.71807 | 9.70695 | 38805 ft | 463 kts | 170° |
| 2026-05-05 17:46 | 51.65514 | 9.72966 | 38792 ft | 463 kts | 171° |
| 2026-05-05 17:46 | 51.59230 | 9.75215 | 38788 ft | 462 kts | 170° |
| 2026-05-05 17:47 | 51.52960 | 9.77459 | 38789 ft | 462 kts | 170° |
| 2026-05-05 17:47 | 51.46726 | 9.79685 | 38790 ft | 461 kts | 171° |
| 2026-05-05 17:48 | 51.40449 | 9.81918 | 38788 ft | 461 kts | 171° |
| 2026-05-05 17:48 | 51.34118 | 9.82666 | 38794 ft | 455 kts | 183° |
| 2026-05-05 17:49 | 51.27792 | 9.82402 | 38785 ft | 455 kts | 184° |
| 2026-05-05 17:49 | 51.21460 | 9.82147 | 38784 ft | 455 kts | 183° |
| 2026-05-05 17:50 | 51.15132 | 9.81918 | 38775 ft | 455 kts | 183° |
| 2026-05-05 17:50 | 51.08822 | 9.81701 | 38772 ft | 449 kts | 183° |
| 2026-05-05 17:51 | 51.02605 | 9.81494 | 38772 ft | 446 kts | 183° |
| 2026-05-05 17:51 | 50.96409 | 9.81288 | 38779 ft | 446 kts | 183° |
| 2026-05-05 17:52 | 50.90218 | 9.81081 | 38621 ft | 445 kts | 183° |
| 2026-05-05 17:52 | 50.87118 | 9.80976 | 38086 ft | 445 kts | 182° |
| 2026-05-05 17:52 | 50.84033 | 9.80871 | 37525 ft | 442 kts | 182° |
| 2026-05-05 17:52 | 50.80966 | 9.80768 | 36978 ft | 439 kts | 182° |
| 2026-05-05 17:53 | 50.77962 | 9.80667 | 36432 ft | 437 kts | 182° |
| 2026-05-05 17:53 | 50.74891 | 9.80565 | 35857 ft | 433 kts | 181° |
| 2026-05-05 17:53 | 50.71888 | 9.80465 | 35180 ft | 431 kts | 181° |
| 2026-05-05 17:53 | 50.68936 | 9.80366 | 34467 ft | 430 kts | 181° |
| 2026-05-05 17:54 | 50.65951 | 9.80267 | 33882 ft | 429 kts | 180° |
| 2026-05-05 17:54 | 50.62964 | 9.80170 | 33215 ft | 429 kts | 180° |
| 2026-05-05 17:54 | 50.59990 | 9.80077 | 32665 ft | 426 kts | 180° |
| 2026-05-05 17:54 | 50.57031 | 9.79982 | 32130 ft | 423 kts | 180° |
| 2026-05-05 17:55 | 50.54101 | 9.79890 | 31580 ft | 421 kts | 181° |
| 2026-05-05 17:55 | 50.51177 | 9.79796 | 31068 ft | 418 kts | 181° |
| 2026-05-05 17:55 | 50.48277 | 9.79700 | 30559 ft | 416 kts | 181° |
| 2026-05-05 17:55 | 50.45392 | 9.79603 | 30069 ft | 413 kts | 180° |
| 2026-05-05 17:56 | 50.42527 | 9.79502 | 29532 ft | 411 kts | 180° |
| 2026-05-05 17:56 | 50.39677 | 9.79411 | 28966 ft | 409 kts | 180° |
| 2026-05-05 17:56 | 50.36840 | 9.79322 | 28410 ft | 406 kts | 180° |
| 2026-05-05 17:56 | 50.34028 | 9.79234 | 27866 ft | 404 kts | 180° |
| 2026-05-05 17:57 | 50.31220 | 9.79144 | 27330 ft | 402 kts | 180° |
| 2026-05-05 17:57 | 50.28428 | 9.79055 | 26811 ft | 400 kts | 180° |
| 2026-05-05 17:57 | 50.25636 | 9.78920 | 26291 ft | 398 kts | 182° |
| 2026-05-05 17:57 | 50.22908 | 9.78650 | 26004 ft | 391 kts | 182° |
| 2026-05-05 17:58 | 50.20204 | 9.78354 | 25753 ft | 389 kts | 182° |
| 2026-05-05 17:58 | 50.17505 | 9.78067 | 25501 ft | 388 kts | 182° |
| 2026-05-05 17:58 | 50.14811 | 9.77790 | 25260 ft | 387 kts | 182° |
| 2026-05-05 17:58 | 50.12127 | 9.77521 | 25008 ft | 386 kts | 182° |
| 2026-05-05 17:59 | 50.09454 | 9.77257 | 24770 ft | 385 kts | 182° |
| 2026-05-05 17:59 | 50.06783 | 9.76997 | 24530 ft | 384 kts | 182° |
| 2026-05-05 17:59 | 50.04122 | 9.76739 | 24241 ft | 383 kts | 182° |
| 2026-05-05 17:59 | 50.01476 | 9.76484 | 23891 ft | 380 kts | 182° |
| 2026-05-05 18:00 | 49.98841 | 9.76232 | 23539 ft | 380 kts | 182° |
| 2026-05-05 18:00 | 49.96203 | 9.75980 | 23124 ft | 380 kts | 183° |
| 2026-05-05 18:00 | 49.93565 | 9.75727 | 22618 ft | 378 kts | 183° |
| 2026-05-05 18:00 | 49.90951 | 9.75477 | 22140 ft | 375 kts | 183° |
| 2026-05-05 18:01 | 49.88356 | 9.75229 | 21662 ft | 372 kts | 183° |
| 2026-05-05 18:01 | 49.85783 | 9.74984 | 21195 ft | 369 kts | 183° |
| 2026-05-05 18:01 | 49.83221 | 9.74740 | 20724 ft | 367 kts | 183° |
| 2026-05-05 18:01 | 49.80722 | 9.74502 | 20285 ft | 364 kts | 183° |
| 2026-05-05 18:02 | 49.78169 | 9.74260 | 19832 ft | 362 kts | 184° |
| 2026-05-05 18:02 | 49.75700 | 9.74032 | 19397 ft | 359 kts | 184° |
| 2026-05-05 18:02 | 49.73211 | 9.73798 | 18967 ft | 357 kts | 184° |
| 2026-05-05 18:02 | 49.70737 | 9.73562 | 18538 ft | 355 kts | 184° |
| 2026-05-05 18:03 | 49.68278 | 9.73328 | 18113 ft | 353 kts | 184° |
| 2026-05-05 18:03 | 49.65834 | 9.73095 | 17627 ft | 351 kts | 185° |
| 2026-05-05 18:03 | 49.63399 | 9.72864 | 17099 ft | 351 kts | 185° |
| 2026-05-05 18:03 | 49.60962 | 9.72633 | 16580 ft | 350 kts | 185° |
| 2026-05-05 18:04 | 49.58534 | 9.72404 | 16067 ft | 350 kts | 185° |
| 2026-05-05 18:04 | 49.56105 | 9.72175 | 15555 ft | 349 kts | 185° |
| 2026-05-05 18:04 | 49.53676 | 9.71952 | 15061 ft | 349 kts | 186° |
| 2026-05-05 18:04 | 49.51254 | 9.71725 | 14568 ft | 348 kts | 186° |
| 2026-05-05 18:05 | 49.48841 | 9.71496 | 14088 ft | 347 kts | 186° |
| 2026-05-05 18:05 | 49.46428 | 9.71268 | 13601 ft | 346 kts | 186° |
| 2026-05-05 18:05 | 49.44040 | 9.71042 | 13246 ft | 340 kts | 186° |
| 2026-05-05 18:05 | 49.41709 | 9.70823 | 12979 ft | 331 kts | 186° |
| 2026-05-05 18:06 | 49.39437 | 9.70610 | 12714 ft | 324 kts | 186° |
| 2026-05-05 18:06 | 49.37957 | 9.70472 | 12540 ft | 319 kts | 186° |
| 2026-05-05 18:06 | 49.35038 | 9.70199 | 12188 ft | 310 kts | 186° |
| 2026-05-05 18:06 | 49.32913 | 9.70001 | 11920 ft | 303 kts | 187° |
| 2026-05-05 18:07 | 49.30846 | 9.69809 | 11823 ft | 290 kts | 187° |
| 2026-05-05 18:07 | 49.28868 | 9.69626 | 11824 ft | 285 kts | 187° |
| 2026-05-05 18:07 | 49.26864 | 9.69438 | 11821 ft | 284 kts | 187° |
| 2026-05-05 18:07 | 49.24936 | 9.69258 | 11622 ft | 280 kts | 187° |
| 2026-05-05 18:08 | 49.22986 | 9.69074 | 11183 ft | 281 kts | 187° |
| 2026-05-05 18:08 | 49.21039 | 9.68891 | 10813 ft | 280 kts | 187° |
| 2026-05-05 18:08 | 49.19097 | 9.68711 | 10468 ft | 278 kts | 187° |
| 2026-05-05 18:08 | 49.17170 | 9.68532 | 10153 ft | 276 kts | 187° |
| 2026-05-05 18:09 | 49.15261 | 9.68355 | 9916 ft | 275 kts | 187° |
| 2026-05-05 18:09 | 49.13349 | 9.68177 | 9670 ft | 275 kts | 186° |
| 2026-05-05 18:09 | 49.11442 | 9.68003 | 9393 ft | 274 kts | 187° |
| 2026-05-05 18:09 | 49.09550 | 9.67833 | 9128 ft | 271 kts | 187° |
| 2026-05-05 18:10 | 49.07672 | 9.67659 | 8860 ft | 270 kts | 187° |
| 2026-05-05 18:10 | 49.05806 | 9.67486 | 8519 ft | 268 kts | 187° |
| 2026-05-05 18:10 | 49.03934 | 9.67312 | 8146 ft | 268 kts | 187° |
| 2026-05-05 18:10 | 49.02085 | 9.67141 | 7794 ft | 266 kts | 187° |
| 2026-05-05 18:11 | 49.00242 | 9.66970 | 7446 ft | 265 kts | 187° |
| 2026-05-05 18:11 | 48.98405 | 9.66802 | 7120 ft | 263 kts | 187° |
| 2026-05-05 18:11 | 48.96584 | 9.66635 | 6839 ft | 261 kts | 187° |
| 2026-05-05 18:11 | 48.94767 | 9.66467 | 6598 ft | 262 kts | 187° |
| 2026-05-05 18:12 | 48.92950 | 9.66299 | 6360 ft | 260 kts | 187° |
| 2026-05-05 18:12 | 48.91183 | 9.66138 | 6111 ft | 256 kts | 187° |
| 2026-05-05 18:12 | 48.89435 | 9.65981 | 5987 ft | 246 kts | 188° |
| 2026-05-05 18:12 | 48.87780 | 9.65835 | 5979 ft | 231 kts | 188° |
| 2026-05-05 18:13 | 48.86213 | 9.65659 | 5966 ft | 219 kts | 196° |
| 2026-05-05 18:13 | 48.84868 | 9.64753 | 5664 ft | 212 kts | 218° |
| 2026-05-05 18:13 | 48.83716 | 9.63359 | 5315 ft | 212 kts | 223° |
| 2026-05-05 18:13 | 48.82609 | 9.61880 | 5053 ft | 209 kts | 223° |
| 2026-05-05 18:14 | 48.81528 | 9.60415 | 4791 ft | 206 kts | 224° |
| 2026-05-05 18:14 | 48.80466 | 9.58971 | 4545 ft | 204 kts | 224° |
| 2026-05-05 18:14 | 48.79409 | 9.57532 | 4284 ft | 203 kts | 224° |
| 2026-05-05 18:14 | 48.78356 | 9.56098 | 4051 ft | 203 kts | 224° |
| 2026-05-05 18:15 | 48.77324 | 9.54688 | 4007 ft | 194 kts | 224° |
| 2026-05-05 18:15 | 48.76360 | 9.53386 | 4003 ft | 178 kts | 224° |
| 2026-05-05 18:15 | 48.75452 | 9.52151 | 3986 ft | 173 kts | 229° |
| 2026-05-05 18:15 | 48.74711 | 9.50728 | 3990 ft | 171 kts | 238° |
| 2026-05-05 18:16 | 48.74164 | 9.49125 | 3985 ft | 172 kts | 246° |
| 2026-05-05 18:16 | 48.73759 | 9.47419 | 3984 ft | 172 kts | 252° |
| 2026-05-05 18:16 | 48.73432 | 9.45669 | 3994 ft | 172 kts | 253° |
| 2026-05-05 18:16 | 48.73114 | 9.43917 | 3805 ft | 172 kts | 253° |
| 2026-05-05 18:17 | 48.72787 | 9.42153 | 3577 ft | 172 kts | 253° |
| 2026-05-05 18:17 | 48.72456 | 9.40409 | 3361 ft | 173 kts | 253° |
| 2026-05-05 18:17 | 48.72121 | 9.38654 | 3145 ft | 173 kts | 253° |
| 2026-05-05 18:17 | 48.71784 | 9.36899 | 2920 ft | 173 kts | 253° |
| 2026-05-05 18:18 | 48.71449 | 9.35143 | 2690 ft | 170 kts | 252° |
| 2026-05-05 18:18 | 48.71129 | 9.33470 | 2439 ft | 160 kts | 253° |
| 2026-05-05 18:18 | 48.70827 | 9.31877 | 2231 ft | 158 kts | 253° |
| 2026-05-05 18:18 | 48.70522 | 9.30276 | 2009 ft | 158 kts | 253° |
| 2026-05-05 18:19 | 48.70218 | 9.28679 | 1793 ft | 157 kts | 253° |
| 2026-05-05 18:19 | 48.69916 | 9.27087 | 1589 ft | 157 kts | 253° |
| 2026-05-05 18:19 | 48.69612 | 9.25501 | 1376 ft | 156 kts | 253° |
| 2026-05-05 18:19 | 48.69318 | 9.23928 | 1210 ft | 151 kts | 253° |
| 2026-05-05 18:20 | 48.69069 | 9.22638 | 1232 ft | 101 kts | 254° |
| 2026-05-05 18:20 | 48.68933 | 9.21910 | 1258 ft | 40 kts | 254° |
| 2026-05-05 18:20 | 48.68861 | 9.21530 | 1266 ft | 36 kts | 254° |
| 2026-05-05 18:20 | 48.68815 | 9.21171 | 1270 ft | 34 kts | 268° |
| 2026-05-05 18:21 | 48.68839 | 9.20960 | 1278 ft | 8 kts | 284° |
| 2026-05-05 18:21 | 48.68844 | 9.20931 | 1281 ft | 0 kts | 284° |
| 2026-05-05 18:21 | 48.68844 | 9.20929 | 1281 ft | 1 kts | 284° |
| 2026-05-05 18:22 | 48.68847 | 9.20908 | 1282 ft | 3 kts | 284° |
| 2026-05-05 18:22 | 48.68855 | 9.20861 | 1282 ft | 5 kts | 284° |
| 2026-05-05 18:22 | 48.68865 | 9.20808 | 1287 ft | 5 kts | 288° |
| 2026-05-05 18:22 | 48.68879 | 9.20764 | 1288 ft | 5 kts | 304° |
| 2026-05-05 18:23 | 48.68896 | 9.20732 | 1284 ft | 3 kts | 311° |
| 2026-05-05 18:23 | 48.68916 | 9.20699 | 1288 ft | 6 kts | 312° |
| 2026-05-05 18:23 | 48.68956 | 9.20634 | 1288 ft | 11 kts | 313° |
| 2026-05-05 18:23 | 48.69013 | 9.20546 | 1292 ft | 12 kts | 315° |
| 2026-05-05 18:24 | 48.69054 | 9.20450 | 1296 ft | 11 kts | 276° |
| 2026-05-05 18:24 | 48.69044 | 9.20340 | 1301 ft | 11 kts | 255° |
| 2026-05-05 18:24 | 48.69026 | 9.20235 | 1305 ft | 10 kts | 255° |
| 2026-05-05 18:24 | 48.69022 | 9.20149 | 1309 ft | 4 kts | 294° |
| 2026-05-05 18:25 | 48.69031 | 9.20132 | 1310 ft | 1 kts | 315° |
| 2026-05-05 18:25 | 48.69031 | 9.20131 | 1310 ft | 0 kts | 315° |
| 2026-05-05 18:25 | 48.69053 | 9.20107 | 1312 ft | 4 kts | 331° |
| 2026-05-05 18:25 | 48.69071 | 9.20096 | 1312 ft | 0 kts | 343° |